createdAt,value
2023-02-11T00:01:24.989Z,-0.30
2023-02-11T00:03:52.401Z,-0.09
2023-02-11T00:06:19.471Z,-0.11
2023-02-11T00:08:46.579Z,-0.23
2023-02-11T00:11:15.573Z,-0.16
2023-02-11T00:13:43.551Z,-0.23
2023-02-11T00:16:12.346Z,-0.16
2023-02-11T00:18:39.045Z,-0.25
2023-02-11T00:21:09.964Z,-0.37
2023-02-11T00:23:37.141Z,-0.33
2023-02-11T00:26:04.949Z,-0.42
2023-02-11T00:41:34.020Z,-0.45
2023-02-11T00:46:34.567Z,-0.56
2023-02-11T00:49:01.164Z,-0.63
2023-02-11T00:51:28.676Z,-0.67
2023-02-11T00:53:55.601Z,-0.53
2023-02-11T00:56:22.259Z,-0.45
2023-02-11T00:58:49.113Z,-0.40
2023-02-11T01:04:04.539Z,-0.28
2023-02-11T01:06:31.218Z,-0.35
2023-02-11T01:08:57.774Z,-0.32
2023-02-11T01:11:24.482Z,-0.36
2023-02-11T01:13:51.361Z,-0.43
2023-02-11T01:16:19.466Z,-0.50
2023-02-11T01:18:46.735Z,-0.58
2023-02-11T01:42:27.171Z,-0.61
2023-02-11T01:45:01.969Z,-0.54
2023-02-11T01:47:34.858Z,-0.49
2023-02-11T01:50:07.674Z,-0.50
2023-02-11T01:52:41.135Z,-0.37
2023-02-11T01:55:32.970Z,-0.29
2023-02-11T01:58:06.405Z,-0.37
2023-02-11T02:00:40.543Z,-0.25
2023-02-11T02:03:17.905Z,-0.24
2023-02-11T02:05:55.746Z,-0.21
2023-02-11T02:08:35.007Z,-0.19
2023-02-11T02:11:08.022Z,-0.13
2023-02-11T02:13:40.753Z,-0.11
2023-02-11T02:16:16.320Z,0.01
2023-02-11T02:22:17.424Z,-0.09
2023-02-11T02:25:01.202Z,-0.05
2023-02-11T02:27:50.245Z,0.00
2023-02-11T02:30:53.262Z,-0.13
2023-02-11T02:33:30.629Z,-0.13
2023-02-11T02:36:03.722Z,-0.22
2023-02-11T02:38:49.030Z,-0.19
2023-02-11T02:41:18.988Z,-0.33
2023-02-11T02:43:49.607Z,-0.46
2023-02-11T02:46:20.202Z,-0.38
2023-02-11T02:48:49.778Z,-0.40
2023-02-11T02:51:53.481Z,-0.44
2023-02-11T02:54:32.134Z,-0.54
2023-02-11T02:57:28.900Z,-0.49
2023-02-11T03:13:19.446Z,-0.30
2023-02-11T03:29:19.322Z,-0.17
2023-02-11T03:31:59.618Z,-0.06
2023-02-11T03:34:47.231Z,-0.01
2023-02-11T03:37:27.732Z,-0.09
2023-02-11T03:40:02.892Z,-0.21
2023-02-11T03:42:44.381Z,-0.25
2023-02-11T03:45:20.422Z,-0.11
2023-02-11T03:48:00.307Z,-0.19
2023-02-11T03:50:36.209Z,-0.34
2023-02-11T03:53:10.630Z,-0.46
2023-02-11T03:55:44.427Z,-0.42
2023-02-11T03:58:17.361Z,-0.45
2023-02-11T04:00:50.177Z,-0.37
2023-02-11T04:03:22.973Z,-0.30
2023-02-11T04:05:55.672Z,-0.21
2023-02-11T04:08:28.454Z,-0.23
2023-02-11T04:13:32.568Z,-0.16
2023-02-11T04:15:59.219Z,-0.14
2023-02-11T04:18:25.880Z,-0.13
2023-02-11T04:20:52.474Z,-0.16
2023-02-11T04:23:19.084Z,-0.11
2023-02-11T04:25:45.673Z,-0.06
2023-02-11T04:28:12.281Z,0.02
2023-02-11T04:30:38.868Z,-0.12
2023-02-11T04:33:05.406Z,-0.20
2023-02-11T04:35:32.062Z,-0.26
2023-02-11T04:37:58.661Z,-0.21
2023-02-11T04:40:25.267Z,-0.34
2023-02-11T04:45:23.182Z,-0.26
2023-02-11T04:47:50.041Z,-0.25
2023-02-11T04:50:17.058Z,-0.24
2023-02-11T04:52:43.705Z,-0.23
2023-02-11T04:55:10.417Z,-0.15
2023-02-11T04:57:37.000Z,-0.07
2023-02-11T05:00:04.533Z,-0.03
2023-02-11T05:02:31.399Z,-0.02
2023-02-11T05:04:58.098Z,-0.06
2023-02-11T05:07:25.054Z,-0.03
2023-02-11T05:09:51.659Z,0.04
2023-02-11T05:12:18.576Z,0.13
2023-02-11T05:14:45.117Z,0.07
2023-02-11T05:17:11.692Z,0.19
2023-02-11T05:19:38.299Z,0.22
2023-02-11T05:22:04.955Z,0.30
2023-02-11T05:24:32.354Z,0.27
2023-02-11T05:26:59.121Z,0.25
2023-02-11T05:29:25.698Z,0.23
2023-02-11T05:31:52.679Z,0.16
2023-02-11T05:34:19.468Z,0.15
2023-02-11T05:36:46.074Z,0.25
2023-02-11T05:39:12.681Z,0.28
2023-02-11T05:41:39.221Z,0.35
2023-02-11T05:44:05.783Z,0.36
2023-02-11T05:46:32.447Z,0.40
2023-02-11T05:48:59.207Z,0.41
2023-02-11T05:51:25.869Z,0.39
2023-02-11T05:53:53.415Z,0.46
2023-02-11T05:56:20.045Z,0.65
2023-02-11T05:58:46.647Z,0.70
2023-02-11T06:01:13.256Z,0.78
2023-02-11T06:03:40.006Z,0.78
2023-02-11T06:06:10.670Z,0.79
2023-02-11T06:08:39.199Z,0.85
2023-02-11T06:11:06.174Z,0.86
2023-02-11T06:13:32.729Z,0.91
2023-02-11T06:16:01.002Z,0.81
2023-02-11T06:18:27.845Z,0.82
2023-02-11T06:20:55.154Z,0.78
2023-02-11T06:23:22.191Z,0.80
2023-02-11T06:25:49.300Z,0.82
2023-02-11T06:28:16.424Z,0.73
2023-02-11T06:30:43.342Z,0.76
2023-02-11T06:33:10.024Z,0.82
2023-02-11T06:35:39.168Z,0.97
2023-02-11T06:38:05.769Z,0.94
2023-02-11T06:40:32.323Z,0.87
2023-02-11T06:42:58.894Z,0.85
2023-02-11T06:45:25.521Z,0.99
2023-02-11T06:47:52.860Z,1.05
2023-02-11T06:50:19.562Z,0.98
2023-02-11T06:52:46.242Z,1.04
2023-02-11T06:55:13.233Z,1.06
2023-02-11T06:57:40.045Z,1.05
2023-02-11T07:02:38.440Z,0.99
2023-02-11T07:05:06.948Z,0.99
2023-02-11T07:07:34.380Z,0.93
2023-02-11T07:10:03.244Z,0.98
2023-02-11T07:12:30.711Z,0.98
2023-02-11T07:14:57.679Z,1.01
2023-02-11T07:17:24.580Z,0.90
2023-02-11T07:19:51.161Z,1.04
2023-02-11T07:22:17.760Z,1.09
2023-02-11T07:24:44.679Z,1.14
2023-02-11T07:27:11.403Z,1.15
2023-02-11T07:29:38.032Z,1.22
2023-02-11T07:32:05.717Z,1.21
2023-02-11T07:34:33.242Z,1.29
2023-02-11T07:39:33.725Z,1.15
2023-02-11T07:44:38.190Z,1.26
2023-02-11T07:47:04.925Z,1.58
2023-02-11T07:49:31.651Z,1.59
2023-02-11T07:51:58.295Z,1.59
2023-02-11T07:54:24.953Z,1.68
2023-02-11T07:56:51.615Z,1.67
2023-02-11T07:59:18.193Z,1.79
2023-02-11T08:01:44.836Z,1.97
2023-02-11T08:04:11.720Z,2.10
2023-02-11T08:06:42.123Z,2.08
2023-02-11T08:09:14.341Z,2.10
2023-02-11T08:11:41.100Z,2.20
2023-02-11T08:14:08.628Z,2.18
2023-02-11T08:16:37.154Z,2.16
2023-02-11T08:19:08.795Z,2.25
2023-02-11T08:21:35.490Z,2.38
2023-02-11T08:24:03.694Z,2.56
2023-02-11T08:26:32.950Z,2.68
2023-02-11T08:28:59.677Z,2.74
2023-02-11T08:31:33.868Z,2.91
2023-02-11T08:34:02.506Z,3.68
2023-02-11T08:36:34.344Z,3.62
2023-02-11T08:39:20.654Z,3.27
2023-02-11T08:41:53.621Z,3.62
2023-02-11T08:44:21.730Z,3.42
2023-02-11T08:46:48.835Z,3.60
2023-02-11T08:49:16.443Z,3.67
2023-02-11T08:51:43.641Z,3.89
2023-02-11T08:54:10.279Z,3.93
2023-02-11T08:56:38.515Z,3.87
2023-02-11T08:59:05.732Z,4.11
2023-02-11T09:01:33.553Z,4.25
2023-02-11T09:04:01.261Z,4.43
2023-02-11T09:06:28.837Z,4.58
2023-02-11T09:08:57.373Z,4.87
2023-02-11T09:11:33.943Z,4.43
2023-02-11T09:14:01.647Z,4.52
2023-02-11T09:19:05.551Z,4.79
2023-02-11T09:21:32.348Z,5.12
2023-02-11T09:23:59.265Z,5.41
2023-02-11T09:26:28.634Z,5.52
2023-02-11T09:28:55.797Z,5.76
2023-02-11T09:31:24.488Z,6.01
2023-02-11T09:33:54.150Z,6.12
2023-02-11T09:36:23.492Z,6.48
2023-02-11T09:38:50.956Z,6.54
2023-02-11T09:41:23.449Z,6.68
2023-02-11T09:46:43.223Z,6.91
2023-02-11T09:49:20.282Z,7.10
2023-02-11T09:51:51.367Z,6.91
2023-02-11T09:54:30.126Z,7.11
2023-02-11T09:56:56.843Z,7.33
2023-02-11T09:59:23.615Z,7.15
2023-02-11T10:02:02.437Z,7.08
2023-02-11T10:05:13.674Z,7.03
2023-02-11T10:08:03.892Z,7.14
2023-02-11T10:10:40.688Z,7.18
2023-02-11T10:13:22.029Z,7.13
2023-02-11T10:16:15.656Z,6.98
2023-02-11T10:19:07.516Z,6.90
2023-02-11T10:21:50.840Z,6.86
2023-02-11T10:24:17.959Z,6.86
2023-02-11T10:26:45.572Z,6.63
2023-02-11T10:29:38.687Z,6.54
2023-02-11T10:32:27.565Z,6.57
2023-02-11T10:34:58.845Z,6.60
2023-02-11T10:37:25.502Z,6.67
2023-02-11T10:39:52.325Z,6.54
2023-02-11T10:42:19.042Z,6.63
2023-02-11T10:44:57.816Z,6.61
2023-02-11T10:47:29.405Z,6.71
2023-02-11T10:49:58.304Z,6.63
2023-02-11T10:52:27.047Z,6.74
2023-02-11T10:54:57.891Z,6.72
2023-02-11T10:57:28.585Z,6.72
2023-02-11T11:00:02.577Z,6.80
2023-02-11T11:02:34.787Z,6.80
2023-02-11T11:05:15.083Z,7.01
2023-02-11T11:07:53.322Z,7.22
2023-02-11T11:10:30.373Z,7.39
2023-02-11T11:12:56.967Z,7.60
2023-02-11T11:15:26.756Z,7.83
2023-02-11T11:18:21.918Z,8.17
2023-02-11T11:20:58.342Z,8.36
2023-02-11T11:23:25.462Z,8.33
2023-02-11T11:26:13.135Z,8.64
2023-02-11T11:28:41.936Z,8.54
2023-02-11T11:31:19.196Z,9.81
2023-02-11T11:33:47.455Z,9.37
2023-02-11T11:36:20.096Z,9.44
2023-02-11T11:38:57.763Z,9.23
2023-02-11T11:41:28.766Z,9.04
2023-02-11T11:44:29.500Z,9.38
2023-02-11T11:47:07.626Z,9.58
2023-02-11T11:49:48.055Z,9.73
2023-02-11T11:52:35.805Z,9.79
2023-02-11T11:55:12.273Z,9.82
2023-02-11T11:57:40.139Z,10.15
2023-02-11T12:00:15.369Z,10.32
2023-02-11T12:02:54.073Z,10.32
2023-02-11T12:05:32.403Z,10.06
2023-02-11T12:10:58.463Z,9.85
2023-02-11T12:13:52.680Z,9.85
2023-02-11T12:16:34.832Z,9.51
2023-02-11T12:19:20.083Z,9.38
2023-02-11T12:21:55.062Z,9.23
2023-02-11T12:24:29.849Z,9.27
2023-02-11T12:27:23.991Z,9.17
2023-02-11T12:30:19.189Z,9.17
2023-02-11T12:32:51.369Z,9.17
2023-02-11T12:35:31.123Z,9.24
2023-02-11T12:38:24.000Z,9.21
2023-02-11T12:41:10.412Z,9.02
2023-02-11T12:46:34.266Z,9.71
2023-02-11T12:49:00.880Z,9.49
2023-02-11T12:51:49.072Z,9.38
2023-02-11T12:54:38.722Z,9.09
2023-02-11T12:57:14.940Z,9.10
2023-02-11T12:59:47.628Z,9.03
2023-02-11T13:02:32.945Z,9.01
2023-02-11T13:07:44.259Z,9.07
2023-02-11T13:10:26.334Z,9.25
2023-02-11T13:13:14.053Z,9.38
2023-02-11T13:18:40.285Z,11.24
2023-02-11T13:21:15.768Z,11.12
2023-02-11T13:24:05.579Z,10.93
2023-02-11T13:26:46.031Z,10.66
2023-02-11T13:29:40.614Z,10.49
2023-02-11T13:32:12.546Z,10.06
2023-02-11T13:34:41.682Z,9.62
2023-02-11T13:37:26.827Z,9.57
2023-02-11T13:39:59.056Z,9.40
2023-02-11T13:42:25.967Z,9.38
2023-02-11T13:44:53.572Z,9.37
2023-02-11T13:47:32.475Z,9.49
2023-02-11T13:50:00.734Z,9.59
2023-02-11T13:52:31.742Z,9.39
2023-02-11T13:55:06.812Z,9.38
2023-02-11T13:57:36.157Z,9.61
2023-02-11T14:00:27.376Z,9.60
2023-02-11T14:03:51.174Z,9.50
2023-02-11T14:06:39.898Z,9.53
2023-02-11T14:09:09.496Z,9.62
2023-02-11T14:12:26.321Z,9.50
2023-02-11T14:15:04.266Z,9.50
2023-02-11T14:17:34.001Z,9.43
2023-02-11T14:20:04.620Z,9.47
2023-02-11T14:22:44.301Z,9.49
2023-02-11T14:25:22.873Z,9.59
2023-02-11T14:27:57.917Z,9.52
2023-02-11T14:30:28.786Z,9.67
2023-02-11T14:33:32.663Z,9.69
2023-02-11T14:36:15.879Z,9.84
2023-02-11T14:39:19.833Z,9.85
2023-02-11T14:41:48.898Z,9.88
2023-02-11T14:44:20.659Z,9.97
2023-02-11T14:46:50.586Z,9.81
2023-02-11T14:49:27.460Z,9.82
2023-02-11T14:52:04.148Z,9.85
2023-02-11T14:54:31.351Z,9.81
2023-02-11T14:57:11.810Z,9.57
2023-02-11T14:59:38.766Z,9.49
2023-02-11T15:02:20.626Z,9.48
2023-02-11T15:04:47.204Z,9.24
2023-02-11T15:07:14.215Z,9.19
2023-02-11T15:09:44.394Z,9.05
2023-02-11T15:12:23.773Z,8.88
2023-02-11T15:14:56.970Z,8.98
2023-02-11T15:17:28.010Z,8.97
2023-02-11T15:19:58.291Z,8.95
2023-02-11T15:22:36.823Z,8.91
2023-02-11T15:25:10.758Z,8.77
2023-02-11T15:27:52.411Z,8.90
2023-02-11T15:30:21.663Z,8.80
2023-02-11T15:33:03.221Z,8.67
2023-02-11T15:35:35.249Z,8.63
2023-02-11T15:40:37.552Z,8.45
2023-02-11T15:43:09.624Z,8.43
2023-02-11T15:45:38.334Z,8.23
2023-02-11T15:50:53.688Z,8.11
2023-02-11T15:53:31.493Z,7.90
2023-02-11T15:56:21.413Z,7.77
2023-02-11T15:58:49.651Z,7.68
2023-02-11T16:01:16.528Z,7.63
2023-02-11T16:03:43.291Z,7.59
2023-02-11T16:06:24.903Z,7.44
2023-02-11T16:09:05.832Z,7.52
2023-02-11T16:11:38.681Z,7.51
2023-02-11T16:14:23.455Z,7.44
2023-02-11T16:19:30.429Z,7.47
2023-02-11T16:22:00.147Z,7.41
2023-02-11T16:24:35.336Z,7.32
2023-02-11T16:27:08.489Z,7.36
2023-02-11T16:29:37.554Z,7.29
2023-02-11T16:32:17.757Z,7.33
2023-02-11T16:34:44.317Z,7.37
2023-02-11T16:37:11.014Z,7.29
2023-02-11T16:39:37.684Z,7.36
2023-02-11T16:42:07.598Z,7.32
2023-02-11T16:44:34.934Z,7.24
2023-02-11T16:47:03.417Z,7.12
2023-02-11T16:49:33.846Z,7.18
2023-02-11T16:52:02.514Z,7.22
2023-02-11T16:54:30.043Z,7.21
2023-02-11T16:56:57.100Z,7.17
2023-02-11T17:01:55.110Z,7.11
2023-02-11T17:04:28.486Z,7.08
2023-02-11T17:06:57.970Z,7.02
2023-02-11T17:09:30.313Z,7.10
2023-02-11T17:11:57.697Z,7.07
2023-02-11T17:14:24.496Z,6.95
2023-02-11T17:16:51.194Z,6.97
2023-02-11T17:19:21.105Z,6.87
2023-02-11T17:21:50.695Z,7.00
2023-02-11T17:24:18.153Z,6.94
2023-02-11T17:26:45.769Z,6.88
2023-02-11T17:29:18.079Z,8.30
2023-02-11T17:31:44.930Z,9.44
2023-02-11T17:34:11.887Z,8.24
2023-02-11T17:36:39.378Z,7.68
2023-02-11T17:39:08.258Z,7.40
2023-02-11T17:41:36.321Z,7.18
2023-02-11T17:44:03.134Z,6.99
2023-02-11T17:46:29.738Z,6.93
2023-02-11T17:51:35.285Z,6.74
2023-02-11T17:54:05.839Z,6.67
2023-02-11T17:56:34.100Z,6.60
2023-02-11T17:59:02.616Z,6.57
2023-02-11T18:01:31.129Z,6.48
2023-02-11T18:03:58.166Z,6.45
2023-02-11T18:06:24.953Z,6.47
2023-02-11T18:08:51.597Z,6.41
2023-02-11T18:11:18.297Z,6.35
2023-02-11T18:13:45.505Z,6.35
2023-02-11T18:16:16.066Z,6.33
2023-02-11T18:18:43.546Z,6.41
2023-02-11T18:21:15.707Z,6.49
2023-02-11T18:23:42.806Z,6.53
2023-02-11T18:26:10.981Z,6.48
2023-02-11T18:28:38.645Z,6.49
2023-02-11T18:31:06.772Z,6.44
2023-02-11T18:33:34.286Z,6.34
2023-02-11T18:36:07.732Z,6.29
2023-02-11T18:38:34.564Z,6.33
2023-02-11T18:41:01.550Z,6.32
2023-02-11T18:43:31.858Z,6.53
2023-02-11T18:45:58.680Z,6.56
2023-02-11T18:48:28.192Z,6.41
2023-02-11T18:50:55.814Z,6.38
2023-02-11T18:53:24.823Z,6.39
2023-02-11T18:55:52.711Z,6.48
2023-02-11T18:58:21.353Z,6.50
2023-02-11T19:00:49.479Z,6.63
2023-02-11T19:03:16.594Z,6.53
2023-02-11T19:05:48.487Z,6.50
2023-02-11T19:08:17.228Z,6.55
2023-02-11T19:10:46.482Z,6.40
2023-02-11T19:13:14.366Z,6.32
2023-02-11T19:15:45.350Z,6.26
2023-02-11T19:20:46.677Z,6.19
2023-02-11T19:23:13.350Z,6.19
2023-02-11T19:25:46.877Z,6.23
2023-02-11T19:28:13.967Z,6.28
2023-02-11T19:30:41.090Z,6.26
2023-02-11T19:33:10.130Z,6.28
2023-02-11T19:35:36.941Z,6.15
2023-02-11T19:38:05.289Z,6.10
2023-02-11T19:40:32.199Z,6.07
2023-02-11T19:42:58.785Z,6.03
2023-02-11T19:45:27.057Z,6.04
2023-02-11T19:47:56.922Z,5.98
2023-02-11T19:50:24.284Z,5.92
2023-02-11T19:52:50.973Z,5.92
2023-02-11T19:55:17.634Z,5.92
2023-02-11T19:57:44.297Z,5.86
2023-02-11T20:00:11.500Z,5.83
2023-02-11T20:02:39.403Z,5.89
2023-02-11T20:05:06.602Z,5.82
2023-02-11T20:07:33.283Z,5.81
2023-02-11T20:10:00.214Z,5.75
2023-02-11T20:12:26.896Z,5.76
2023-02-11T20:14:53.494Z,5.73
2023-02-11T20:17:20.098Z,5.76
2023-02-11T20:19:46.672Z,5.75
2023-02-11T20:22:13.405Z,5.78
2023-02-11T20:24:40.350Z,5.73
2023-02-11T20:27:08.567Z,5.64
2023-02-11T20:29:35.356Z,5.57
2023-02-11T20:32:03.167Z,5.46
2023-02-11T20:34:29.822Z,5.49
2023-02-11T20:36:56.576Z,5.45
2023-02-11T20:39:24.583Z,5.50
2023-02-11T20:41:51.945Z,5.52
2023-02-11T20:44:18.993Z,5.56
2023-02-11T20:46:46.835Z,5.70
2023-02-11T20:49:16.267Z,5.71
2023-02-11T20:51:42.980Z,5.72
2023-02-11T20:54:15.182Z,5.75
2023-02-11T20:56:42.105Z,5.81
2023-02-11T20:59:09.077Z,5.76
2023-02-11T21:01:40.740Z,5.80
2023-02-11T21:04:14.777Z,5.61
2023-02-11T21:06:45.098Z,5.59
2023-02-11T21:09:14.661Z,5.56
2023-02-11T21:11:42.158Z,5.61
2023-02-11T21:14:10.357Z,5.55
2023-02-11T21:16:37.295Z,5.50
2023-02-11T21:19:04.535Z,5.48
2023-02-11T21:21:32.110Z,5.57
2023-02-11T21:23:58.843Z,5.59
2023-02-11T21:26:25.990Z,5.61
2023-02-11T21:28:52.872Z,5.53
2023-02-11T21:31:23.845Z,5.50
2023-02-11T21:33:51.601Z,5.53
2023-02-11T21:36:18.447Z,5.55
2023-02-11T21:38:45.066Z,5.52
2023-02-11T21:41:12.161Z,5.55
2023-02-11T21:43:38.791Z,5.64
2023-02-11T21:46:10.373Z,5.64
2023-02-11T21:48:37.284Z,5.64
2023-02-11T21:51:06.879Z,5.67
2023-02-11T21:53:33.866Z,5.66
2023-02-11T21:56:10.021Z,5.63
2023-02-11T21:58:36.648Z,5.66
2023-02-11T22:01:11.347Z,5.60
2023-02-11T22:03:38.043Z,5.63
2023-02-11T22:06:13.620Z,5.62
2023-02-11T22:08:40.626Z,5.65
2023-02-11T22:11:09.620Z,5.67
2023-02-11T22:13:37.078Z,5.67
2023-02-11T22:16:07.211Z,5.82
2023-02-11T22:18:34.009Z,5.85
2023-02-11T22:21:02.748Z,5.92
2023-02-11T22:23:30.090Z,5.97
2023-02-11T22:25:58.059Z,5.91
2023-02-11T22:28:26.145Z,5.97
2023-02-11T22:30:54.936Z,5.88
2023-02-11T22:33:23.265Z,5.90
2023-02-11T22:35:50.295Z,5.72
2023-02-11T22:38:16.854Z,5.56
2023-02-11T22:40:43.708Z,5.60
2023-02-11T22:43:10.625Z,5.63
2023-02-11T22:45:37.259Z,5.63
2023-02-11T22:48:04.030Z,5.53
2023-02-11T22:50:30.663Z,5.57
2023-02-11T22:52:57.233Z,5.62
2023-02-11T22:55:23.813Z,5.59
2023-02-11T22:57:50.376Z,5.54
2023-02-11T23:00:17.672Z,5.43
2023-02-11T23:02:44.311Z,5.34
2023-02-11T23:05:10.997Z,5.27
2023-02-11T23:07:37.577Z,5.36
2023-02-11T23:10:04.605Z,5.38
2023-02-11T23:12:31.249Z,5.35
2023-02-11T23:14:57.784Z,5.30
2023-02-11T23:17:24.716Z,5.31
2023-02-11T23:19:51.489Z,5.35
2023-02-11T23:22:18.083Z,5.26
2023-02-11T23:24:44.716Z,5.26
2023-02-11T23:27:11.326Z,5.15
2023-02-11T23:29:37.962Z,5.28
2023-02-11T23:32:05.119Z,5.28
2023-02-11T23:34:31.695Z,5.26
2023-02-11T23:36:59.413Z,5.28
2023-02-11T23:39:26.035Z,5.17
2023-02-11T23:41:58.980Z,5.18
2023-02-11T23:44:26.750Z,5.48
2023-02-11T23:46:53.468Z,5.60
2023-02-11T23:49:20.069Z,5.62
2023-02-11T23:54:18.093Z,5.58
2023-02-11T23:56:44.709Z,5.63
2023-02-11T23:59:11.809Z,5.81
